Time;durP1;ratioP1;P1;durP2;ratioP2;P2;SDS_P1;SDS_P2;PMS_P1;PMS_P2;Temp;Humidity;BMP_temperature;BMP_pressure;BME280_temperature;BME280_humidity;BME280_pressure;Samples;Min_cycle;Max_cycle;Signal;HPM_P1;HPM_P2
2023/06/28 00:01:15;;;;;;;16.52;8.70;;;;;;;;;;5154519;27;20732;-79
2023/06/28 00:03:41;;;;;;;12.02;8.25;;;;;;;22.06;61.71;94966.19;5133994;27;20440;-80
2023/06/28 00:06:06;;;;;;;15.18;9.10;;;;;;;22.33;62.14;95033.59;5132310;27;20106;-79
2023/06/28 00:08:32;;;;;;;11.15;8.85;;;;;;;21.78;63.52;95014.88;5131689;27;20027;-79
2023/06/28 00:10:58;;;;;;;15.77;8.82;;;;;;;22.12;62.73;95038.50;5133149;27;20030;-79
2023/06/28 00:13:24;;;;;;;20.08;9.52;;;;;;;22.02;62.14;94989.66;5134755;27;20054;-79
2023/06/28 00:15:49;;;;;;;12.75;8.68;;;;;;;21.89;61.41;94961.94;5134775;27;20084;-80
2023/06/28 00:18:15;;;;;;;17.52;8.43;;;;;;;22.44;61.69;95024.94;5135136;27;20023;-79
2023/06/28 00:20:44;;;;;;;18.45;9.63;;;;;;;22.17;61.22;94994.25;5154076;27;20027;-80
2023/06/28 00:23:11;;;;;;;12.85;8.45;;;;;;;22.19;61.51;94991.97;5134973;27;20493;-80
2023/06/28 00:25:36;;;;;;;10.85;8.30;;;;;;;22.24;61.91;95016.78;5134441;27;20030;-80
2023/06/28 00:28:02;;;;;;;14.27;8.77;;;;;;;22.26;61.86;95029.97;5123132;27;20076;-80
2023/06/28 00:30:30;;;;;;;12.57;8.88;;;;;;;22.04;61.97;94995.47;5145989;27;20445;-80
2023/06/28 00:32:55;;;;;;;13.65;8.95;;;;;;;22.29;62.48;95040.03;5134963;27;20484;-80
2023/06/28 00:35:20;;;;;;;17.48;8.98;;;;;;;22.17;62.75;95030.13;5153499;27;20031;-80
2023/06/28 00:37:46;;;;;;;13.77;8.52;;;;;;;22.01;62.67;95009.66;5153088;27;20039;-79
2023/06/28 00:40:11;;;;;;;15.80;9.02;;;;;;;22.00;62.83;95013.50;5134508;27;20157;-80
2023/06/28 00:42:37;;;;;;;18.65;9.30;;;;;;;21.79;62.80;94982.13;5131285;27;20455;-80
2023/06/28 00:45:02;;;;;;;13.88;8.55;;;;;;;22.15;63.24;95037.00;5131053;27;20069;-80
2023/06/28 00:47:30;;;;;;;10.30;8.23;;;;;;;22.00;63.01;95008.09;5131880;27;20035;-80
2023/06/28 00:49:56;;;;;;;13.55;8.02;;;;;;;22.21;62.73;95032.91;5130918;27;20087;-80
2023/06/28 00:52:22;;;;;;;15.68;8.40;;;;;;;22.07;62.87;95024.47;5130945;27;20046;-80
2023/06/28 00:54:48;;;;;;;12.63;7.97;;;;;;;21.55;64.38;94999.28;5131320;27;20049;-80
2023/06/28 00:57:13;;;;;;;14.48;8.77;;;;;;;21.69;64.06;94992.66;5130811;27;20031;-80
2023/06/28 00:59:40;;;;;;;13.20;9.13;;;;;;;21.93;63.41;95022.19;5123527;27;20038;-80
2023/06/28 01:02:06;;;;;;;15.63;8.65;;;;;;;21.74;63.45;94987.03;5147717;27;20083;-80
2023/06/28 01:04:31;;;;;;;28.33;8.85;;;;;;;21.45;64.41;95007.88;5127154;27;20053;-80
2023/06/28 01:07:00;;;;;;;10.75;7.78;;;;;;;21.60;62.77;95037.91;5139238;27;20035;-80
2023/06/28 01:09:28;;;;;;;11.05;8.20;;;;;;;20.97;64.17;95013.50;5120647;27;20027;-80
2023/06/28 01:11:56;;;;;;;17.02;8.57;;;;;;;21.07;64.19;95005.69;5124029;27;20127;-80
2023/06/28 01:14:23;;;;;;;11.10;7.97;;;;;;;21.10;64.04;95009.59;5128786;27;20486;-80
2023/06/28 01:16:54;;;;;;;17.55;8.90;;;;;;;21.24;63.55;94985.75;5130855;27;20027;-80
2023/06/28 01:19:22;;;;;;;13.98;8.82;;;;;;;21.48;63.56;94995.63;5152103;27;20122;-80
2023/06/28 01:21:50;;;;;;;18.05;8.13;;;;;;;21.67;63.14;95019.22;5134172;27;20146;-80
2023/06/28 01:24:16;;;;;;;9.80;7.63;;;;;;;21.48;62.88;95038.78;5133798;27;20023;-80
2023/06/28 01:26:42;;;;;;;20.63;9.07;;;;;;;21.64;62.57;95030.72;5152391;27;20027;-79
2023/06/28 01:29:08;;;;;;;9.75;7.20;;;;;;;21.33;61.82;94972.88;5133285;27;20018;-80
2023/06/28 01:31:36;;;;;;;17.10;8.50;;;;;;;21.39;61.72;94958.00;5152009;27;20063;-80
2023/06/28 01:34:01;;;;;;;11.55;8.65;;;;;;;21.54;60.83;95007.72;5133750;27;20106;-80
2023/06/28 01:36:27;;;;;;;13.77;8.77;;;;;;;21.76;60.66;95033.31;5133876;27;20153;-79
2023/06/28 01:38:56;;;;;;;13.30;8.60;;;;;;;21.86;60.97;95035.50;5133940;27;20080;-77
2023/06/28 01:41:21;;;;;;;16.33;8.25;;;;;;;21.56;61.38;94981.97;5149254;27;20031;-77
2023/06/28 01:43:48;;;;;;;11.63;7.85;;;;;;;21.75;61.31;95020.97;5126887;27;20023;-76
2023/06/28 01:46:13;;;;;;;14.93;8.80;;;;;;;21.52;61.39;94983.00;5134558;27;20425;-76
2023/06/28 01:48:39;;;;;;;12.57;9.18;;;;;;;21.86;61.49;95039.00;5135509;27;20046;-77
2023/06/28 01:51:04;;;;;;;23.63;9.40;;;;;;;21.80;61.58;95034.22;5135566;27;20038;-77
2023/06/28 01:53:30;;;;;;;14.23;7.78;;;;;;;21.79;62.10;95027.25;5135547;27;20047;-76
2023/06/28 01:55:55;;;;;;;13.98;9.70;;;;;;;21.78;62.00;95036.47;5127778;27;20087;-76
2023/06/28 01:58:21;;;;;;;15.68;8.88;;;;;;;21.69;61.60;95023.13;5136161;27;20023;-76
2023/06/28 02:00:47;;;;;;;13.65;9.02;;;;;;;21.82;62.26;95048.13;5135709;27;20029;-77
2023/06/28 02:03:12;;;;;;;11.10;8.40;;;;;;;21.68;62.17;95031.56;5128206;27;20565;-77
2023/06/28 02:05:39;;;;;;;13.20;8.63;;;;;;;21.72;62.16;95045.97;5118385;27;20086;-76
2023/06/28 02:08:05;;;;;;;11.25;8.93;;;;;;;21.45;62.71;95021.38;5132093;27;20130;-76
2023/06/28 02:10:30;;;;;;;18.25;8.88;;;;;;;21.46;62.65;95030.25;5137669;27;20029;-76
2023/06/28 02:12:56;;;;;;;13.60;7.90;;;;;;;21.34;62.82;95014.91;5135742;27;20175;-76
2023/06/28 02:15:21;;;;;;;12.75;8.10;;;;;;;21.61;62.68;95058.38;5154375;27;20042;-76
2023/06/28 02:17:47;;;;;;;17.60;8.60;;;;;;;21.50;62.75;95050.81;5154287;27;20035;-76
2023/06/28 02:20:14;;;;;;;14.50;8.40;;;;;;;21.35;62.28;95031.88;5154609;27;20046;-76
2023/06/28 02:22:39;;;;;;;20.40;9.70;;;;;;;21.28;62.06;95018.22;5153086;27;20027;-77
2023/06/28 02:25:06;;;;;;;15.82;9.50;;;;;;;21.46;62.36;95055.31;5135380;27;20122;-77
2023/06/28 02:27:31;;;;;;;13.85;9.88;;;;;;;21.01;61.15;95041.31;5121551;27;20055;-77
2023/06/28 02:29:57;;;;;;;16.60;10.45;;;;;;;20.98;61.88;95055.50;5135990;27;20139;-76
2023/06/28 02:32:23;;;;;;;17.42;9.85;;;;;;;21.17;62.48;95055.66;5138953;27;20049;-76
2023/06/28 02:34:49;;;;;;;18.30;10.60;;;;;;;20.72;62.96;95021.66;5158138;27;20080;-76
2023/06/28 02:37:14;;;;;;;16.17;11.57;;;;;;;20.07;65.23;95021.91;5139354;27;20027;-76
2023/06/28 02:39:39;;;;;;;18.42;12.43;;;;;;;19.47;65.78;94953.50;5157694;27;20165;-76
2023/06/28 02:42:05;;;;;;;15.68;12.25;;;;;;;19.56;67.16;95011.47;5139088;27;20412;-77
2023/06/28 02:44:31;;;;;;;19.70;13.07;;;;;;;18.73;68.11;94947.13;5139521;27;20037;-76
2023/06/28 02:46:56;;;;;;;16.50;12.50;;;;;;;19.16;68.82;95023.88;5139599;27;20034;-77
2023/06/28 02:49:22;;;;;;;17.73;12.98;;;;;;;19.12;69.20;95023.75;5158064;27;20038;-76
2023/06/28 02:51:48;;;;;;;21.75;13.65;;;;;;;19.14;69.67;95040.34;5139021;27;20083;-76
2023/06/28 02:54:13;;;;;;;15.80;12.93;;;;;;;19.20;69.98;95057.84;5139479;27;20038;-76
2023/06/28 02:56:39;;;;;;;16.23;13.75;;;;;;;19.19;70.24;95068.91;5139326;27;20107;-76
2023/06/28 02:59:04;;;;;;;14.93;13.02;;;;;;;19.10;70.69;95044.00;5138939;27;20030;-76
2023/06/28 03:01:30;;;;;;;15.90;13.15;;;;;;;19.28;69.92;95043.53;5157013;27;20038;-76
2023/06/28 03:03:55;;;;;;;16.35;13.43;;;;;;;18.88;69.92;94986.03;5157807;27;20497;-77
2023/06/28 03:06:20;;;;;;;19.75;12.55;;;;;;;19.14;70.31;95043.03;5157708;27;20389;-76
2023/06/28 03:08:46;;;;;;;19.65;12.70;;;;;;;19.30;69.92;95066.63;5138610;27;20018;-76
2023/06/28 03:11:12;;;;;;;16.40;13.50;;;;;;;19.31;70.55;95068.16;5138062;27;20022;-77
2023/06/28 03:13:37;;;;;;;19.58;12.55;;;;;;;18.91;71.27;95032.97;5156996;27;20077;-79
2023/06/28 03:16:03;;;;;;;17.75;13.25;;;;;;;18.94;71.46;95048.41;5139321;27;20034;-76
2023/06/28 03:18:28;;;;;;;18.25;13.55;;;;;;;18.66;71.79;95013.25;5148361;27;20042;-76
2023/06/28 03:20:53;;;;;;;17.33;13.30;;;;;;;19.17;71.37;95079.22;5134527;27;20525;-76
2023/06/28 03:23:19;;;;;;;17.70;13.73;;;;;;;19.05;71.30;95053.06;5136875;27;20042;-76
2023/06/28 03:25:44;;;;;;;16.05;13.85;;;;;;;19.02;70.93;95015.31;5136530;27;20035;-77
2023/06/28 03:28:11;;;;;;;19.05;14.40;;;;;;;19.21;70.63;95051.34;5136747;27;20042;-77
2023/06/28 03:30:36;;;;;;;19.80;14.50;;;;;;;18.97;70.41;94989.44;5135615;27;20516;-76
2023/06/28 03:33:03;;;;;;;22.23;14.43;;;;;;;19.62;69.68;95066.63;5136750;27;20049;-77
2023/06/28 03:35:28;;;;;;;21.30;14.60;;;;;;;19.55;69.27;95046.75;5118732;27;20026;-77
2023/06/28 03:37:55;;;;;;;18.67;14.95;;;;;;;19.62;68.41;95014.72;5135159;27;20811;-76
2023/06/28 03:40:22;;;;;;;23.77;15.75;;;;;;;19.92;68.19;95059.16;5117645;27;20484;-76
2023/06/28 03:42:48;;;;;;;21.90;15.57;;;;;;;19.59;68.10;95010.81;5131839;27;20032;-78
2023/06/28 03:45:17;;;;;;;26.65;14.45;;;;;;;19.90;67.52;95029.13;5121157;27;20099;-76
2023/06/28 03:47:42;;;;;;;16.42;13.85;;;;;;;19.97;66.95;95045.50;5138357;27;20090;-76
2023/06/28 03:50:08;;;;;;;19.92;14.75;;;;;;;20.07;67.72;95059.59;5157489;27;20557;-76
2023/06/28 03:52:35;;;;;;;19.98;14.43;;;;;;;19.75;67.15;95037.84;5138122;27;20130;-76
2023/06/28 03:55:01;;;;;;;20.05;14.25;;;;;;;19.36;67.69;94968.50;5138111;27;20029;-76
2023/06/28 03:57:26;;;;;;;24.38;14.40;;;;;;;19.70;67.63;95027.28;5145617;27;20027;-77
2023/06/28 03:59:52;;;;;;;18.90;14.55;;;;;;;19.56;68.19;95038.38;5126612;27;20421;-76
2023/06/28 04:02:17;;;;;;;21.23;15.02;;;;;;;19.84;67.98;95053.88;5136507;27;20051;-77
2023/06/28 04:04:43;;;;;;;27.55;16.00;;;;;;;19.64;68.35;95031.31;5137777;27;20077;-76
2023/06/28 04:07:08;;;;;;;20.63;16.17;;;;;;;19.52;68.89;95039.38;5155805;27;20023;-76
2023/06/28 04:09:34;;;;;;;19.27;15.60;;;;;;;19.45;69.17;95031.03;5134057;27;20027;-76
2023/06/28 04:11:59;;;;;;;19.73;16.63;;;;;;;19.37;69.68;95030.00;5125005;27;20023;-77
2023/06/28 04:14:26;;;;;;;22.25;17.83;;;;;;;18.73;70.06;94951.72;5125236;27;20036;-76
2023/06/28 04:16:52;;;;;;;23.42;16.17;;;;;;;19.46;70.40;95065.63;5107874;27;20464;-77
2023/06/28 04:19:18;;;;;;;20.40;16.50;;;;;;;19.52;70.51;95064.38;5125324;27;20036;-77
2023/06/28 04:21:43;;;;;;;24.55;17.85;;;;;;;19.10;70.75;95012.53;5100153;27;20283;-77
2023/06/28 04:24:08;;;;;;;23.20;17.38;;;;;;;19.03;70.29;95004.22;5122356;27;20034;-77
2023/06/28 04:26:34;;;;;;;25.08;16.60;;;;;;;18.98;70.89;95000.97;5136529;27;20034;-77
2023/06/28 04:28:59;;;;;;;24.90;18.25;;;;;;;19.08;71.13;95012.09;5131740;27;20103;-77
2023/06/28 04:31:25;;;;;;;22.65;18.40;;;;;;;19.28;71.16;95034.69;5123809;27;20074;-78
2023/06/28 04:33:51;;;;;;;25.30;18.58;;;;;;;19.50;70.83;95063.91;5111769;27;20450;-77
2023/06/28 04:36:21;;;;;;;32.72;18.35;;;;;;;19.37;71.01;95053.41;5116589;27;20027;-77
2023/06/28 04:38:50;;;;;;;28.77;17.60;;;;;;;19.43;71.25;95063.63;5116224;27;20030;-77
2023/06/28 04:41:16;;;;;;;27.85;18.10;;;;;;;18.91;70.94;94963.09;5131951;27;20539;-80
2023/06/28 04:43:43;;;;;;;22.70;18.63;;;;;;;19.48;70.73;95055.38;5137493;27;20038;-77
2023/06/28 04:46:11;;;;;;;22.50;18.15;;;;;;;19.50;70.38;95060.44;5110304;27;20034;-78
2023/06/28 04:48:40;;;;;;;23.60;17.60;;;;;;;19.59;70.51;95069.19;5122008;27;20501;-77
2023/06/28 04:51:05;;;;;;;26.02;19.60;;;;;;;19.47;70.93;95078.00;5127591;27;20051;-77
2023/06/28 04:53:31;;;;;;;29.58;19.20;;;;;;;19.38;71.05;95053.06;5091668;28;20063;-78
2023/06/28 04:55:56;;;;;;;26.27;18.40;;;;;;;19.05;70.94;94990.47;5126083;27;20030;-77
2023/06/28 04:58:22;;;;;;;33.42;18.55;;;;;;;19.28;70.95;95030.09;5137013;27;20030;-77
2023/06/28 05:00:48;;;;;;;30.02;19.13;;;;;;;19.45;70.67;95052.56;5128963;27;20426;-78
2023/06/28 05:03:15;;;;;;;21.98;17.20;;;;;;;19.54;70.94;95061.31;5113139;27;20077;-78
2023/06/28 05:05:40;;;;;;;26.77;18.42;;;;;;;19.68;70.52;95066.41;5106974;27;20041;-78
2023/06/28 05:08:07;;;;;;;21.20;17.58;;;;;;;19.35;71.31;95061.03;5102195;27;20570;-78
2023/06/28 05:10:33;;;;;;;29.33;17.30;;;;;;;19.69;70.69;95078.72;5121500;27;20092;-78
2023/06/28 05:12:58;;;;;;;25.38;18.48;;;;;;;19.45;70.76;95052.56;5113214;27;20051;-77
2023/06/28 05:15:32;;;;;;;27.73;17.50;;;;;;;19.72;70.77;95094.22;5105825;27;20065;-80
2023/06/28 05:17:57;;;;;;;22.67;17.95;;;;;;;19.44;70.61;95035.63;5107565;27;20490;-79
2023/06/28 05:20:22;;;;;;;28.95;18.60;;;;;;;19.30;71.11;94994.03;5130445;27;20047;-79
2023/06/28 05:22:51;;;;;;;20.50;17.52;;;;;;;17.95;70.73;94795.88;5114459;27;20046;-80
2023/06/28 05:25:18;;;;;;;24.73;17.92;;;;;;;19.67;71.90;95083.69;5078365;27;20462;-82
2023/06/28 05:27:44;;;;;;;27.13;18.45;;;;;;;19.37;72.00;95035.38;5097244;27;20971;-81
2023/06/28 05:30:10;;;;;;;31.38;20.98;;;;;;;19.68;71.72;95091.41;5115444;27;20100;-79
2023/06/28 05:32:36;;;;;;;29.60;19.73;;;;;;;19.62;71.70;95057.75;5107512;27;20477;-79
2023/06/28 05:35:05;;;;;;;32.35;21.98;;;;;;;19.61;72.41;95085.78;5117781;27;20109;-79
2023/06/28 05:37:30;;;;;;;30.13;20.70;;;;;;;19.46;72.47;95032.59;5103046;27;20142;-78
2023/06/28 05:39:56;;;;;;;29.83;19.95;;;;;;;19.68;72.34;95051.06;5102142;27;20744;-79
2023/06/28 05:42:21;;;;;;;36.90;21.23;;;;;;;19.33;71.48;94980.69;5118645;27;20054;-79
2023/06/28 05:44:47;;;;;;;27.88;20.02;;;;;;;19.64;71.14;95015.97;5122045;27;20113;-79
2023/06/28 05:47:12;;;;;;;27.30;20.67;;;;;;;19.60;70.38;94998.16;5124415;27;20091;-79
2023/06/28 05:49:39;;;;;;;32.00;22.27;;;;;;;19.67;70.48;95009.13;5120962;27;20035;-79
2023/06/28 05:52:05;;;;;;;25.13;20.00;;;;;;;20.02;69.78;95058.72;5110645;27;20248;-79
2023/06/28 05:54:31;;;;;;;29.65;21.35;;;;;;;19.93;69.67;95035.72;5119548;27;20066;-79
2023/06/28 05:56:57;;;;;;;25.30;21.40;;;;;;;19.90;69.61;95033.72;5102140;27;20430;-78
2023/06/28 05:59:22;;;;;;;32.17;21.70;;;;;;;19.88;69.62;95039.41;5116031;27;20076;-80
2023/06/28 06:01:48;;;;;;;28.10;22.92;;;;;;;20.13;69.95;95069.06;5115047;27;20648;-79
2023/06/28 06:04:13;;;;;;;34.53;23.40;;;;;;;20.03;69.54;95072.97;5104611;27;20093;-79
2023/06/28 06:06:39;;;;;;;33.05;24.02;;;;;;;19.99;70.24;95045.13;5100739;27;20028;-79
2023/06/28 06:09:04;;;;;;;36.47;24.88;;;;;;;20.09;68.49;95050.06;5100796;27;20019;-79
2023/06/28 06:11:29;;;;;;;31.73;23.25;;;;;;;20.22;68.53;95061.63;5096168;27;20027;-79
2023/06/28 06:13:56;;;;;;;28.15;23.20;;;;;;;20.29;68.21;95084.19;5114227;27;20054;-79
2023/06/28 06:16:22;;;;;;;31.90;22.17;;;;;;;19.98;68.04;95033.59;5113197;27;20019;-79
2023/06/28 06:18:48;;;;;;;31.65;22.13;;;;;;;20.27;68.16;95070.28;5098127;28;20103;-79
2023/06/28 06:21:13;;;;;;;33.75;22.58;;;;;;;20.19;67.19;95065.00;5113020;27;20058;-79
2023/06/28 06:23:39;;;;;;;28.88;22.42;;;;;;;20.14;67.44;95076.00;5094941;28;20131;-78
2023/06/28 06:26:04;;;;;;;28.10;20.73;;;;;;;20.14;67.54;95070.63;5095705;28;20034;-79
2023/06/28 06:28:31;;;;;;;28.98;20.42;;;;;;;20.15;66.82;95093.72;5095733;27;20035;-78
2023/06/28 06:30:56;;;;;;;30.92;21.48;;;;;;;19.73;67.74;95069.66;5113945;27;20043;-79
2023/06/28 06:33:22;;;;;;;29.85;20.52;;;;;;;19.86;67.72;95075.84;5100116;27;20790;-79
2023/06/28 06:35:48;;;;;;;28.90;19.17;;;;;;;19.94;67.94;95083.03;5115935;27;20532;-79
2023/06/28 06:38:14;;;;;;;26.55;20.40;;;;;;;20.01;68.61;95080.59;5082861;28;20035;-79
2023/06/28 06:40:39;;;;;;;28.00;19.27;;;;;;;19.75;67.83;95031.69;5102534;28;20042;-78
2023/06/28 06:43:04;;;;;;;28.75;20.55;;;;;;;19.97;67.72;95063.53;5107296;27;20473;-79
2023/06/28 06:45:30;;;;;;;29.40;19.60;;;;;;;20.19;67.98;95089.25;5102308;28;20027;-80
2023/06/28 06:47:55;;;;;;;28.17;20.23;;;;;;;19.94;67.42;95027.31;5120732;27;20031;-78
2023/06/28 06:50:22;;;;;;;30.15;19.15;;;;;;;20.07;68.15;95055.00;5118132;27;20020;-79
2023/06/28 06:52:47;;;;;;;25.67;18.83;;;;;;;20.31;67.64;95051.53;5103900;27;20028;-77
2023/06/28 06:55:12;;;;;;;31.25;18.27;;;;;;;20.37;66.95;95048.28;5115476;27;20071;-76
2023/06/28 06:57:38;;;;;;;25.10;18.48;;;;;;;20.58;66.60;95075.13;5113939;27;20035;-78
2023/06/28 07:00:04;;;;;;;26.00;18.08;;;;;;;20.53;67.59;95079.94;5092555;27;20031;-78
2023/06/28 07:02:30;;;;;;;27.35;18.77;;;;;;;20.74;66.89;95084.09;5115030;27;20039;-77
2023/06/28 07:04:55;;;;;;;25.45;18.92;;;;;;;20.60;66.96;95075.53;5102166;27;20105;-77
2023/06/28 07:07:21;;;;;;;28.85;18.15;;;;;;;20.52;67.06;95078.38;5116937;27;20031;-78
2023/06/28 07:09:46;;;;;;;25.13;17.60;;;;;;;20.35;67.03;95050.56;5100452;28;20024;-77
2023/06/28 07:12:12;;;;;;;28.17;18.55;;;;;;;20.69;66.87;95073.50;5094478;27;20047;-78
2023/06/28 07:14:37;;;;;;;25.65;18.38;;;;;;;20.52;67.03;95046.81;5098645;27;20075;-78
2023/06/28 07:17:03;;;;;;;26.08;18.15;;;;;;;20.79;66.66;95056.09;5124612;27;20045;-78
2023/06/28 07:19:28;;;;;;;27.27;18.23;;;;;;;20.76;66.33;95046.00;5119419;27;20707;-78
2023/06/28 07:21:54;;;;;;;22.88;16.90;;;;;;;20.57;66.31;95038.53;5119507;27;20035;-78
2023/06/28 07:24:19;;;;;;;32.03;17.98;;;;;;;20.66;66.04;95049.19;5095374;27;20122;-78
2023/06/28 07:26:44;;;;;;;22.83;17.75;;;;;;;20.85;66.01;95079.00;5106982;27;20035;-77
2023/06/28 07:29:10;;;;;;;24.42;16.35;;;;;;;20.80;65.96;95063.84;5096906;27;20027;-77
2023/06/28 07:31:35;;;;;;;25.05;17.05;;;;;;;20.95;65.21;95048.09;5103880;27;20065;-77
2023/06/28 07:34:05;;;;;;;30.58;15.63;;;;;;;21.16;64.63;95068.38;5109182;27;20049;-78
2023/06/28 07:36:32;;;;;;;23.33;15.63;;;;;;;21.07;63.96;95075.00;5101263;27;20771;-77
2023/06/28 07:38:57;;;;;;;24.48;14.98;;;;;;;21.10;62.82;95071.63;5101783;27;20027;-78
2023/06/28 07:41:23;;;;;;;19.38;14.57;;;;;;;20.92;62.84;95060.31;5091059;27;20050;-77
2023/06/28 07:43:49;;;;;;;21.88;14.50;;;;;;;21.14;62.58;95092.16;5120452;27;20039;-78
2023/06/28 07:46:15;;;;;;;17.48;13.93;;;;;;;20.97;62.39;95064.72;5109497;27;20036;-80
2023/06/28 07:48:42;;;;;;;26.88;15.00;;;;;;;21.11;63.02;95082.06;5118833;27;20034;-80
2023/06/28 07:51:07;;;;;;;24.63;14.10;;;;;;;21.14;62.51;95075.97;5121842;27;20016;-79
2023/06/28 07:53:33;;;;;;;17.58;13.05;;;;;;;21.01;61.45;95031.31;5096090;27;20027;-79
2023/06/28 07:55:59;;;;;;;19.52;13.02;;;;;;;21.17;61.63;95061.06;5105945;27;20349;-80
2023/06/28 07:58:24;;;;;;;27.52;13.48;;;;;;;21.29;61.41;95071.00;5096790;27;20035;-77
2023/06/28 08:00:51;;;;;;;20.73;13.85;;;;;;;21.24;60.49;95053.16;5099962;27;20651;-79
2023/06/28 08:03:17;;;;;;;25.60;13.35;;;;;;;21.24;59.73;95079.34;5088460;27;20031;-80
2023/06/28 08:05:43;;;;;;;20.27;13.35;;;;;;;21.12;59.77;95042.41;5104818;27;20159;-78
2023/06/28 08:08:09;;;;;;;23.40;12.93;;;;;;;21.13;60.06;95060.91;5117658;27;20806;-80
2023/06/28 08:10:34;;;;;;;21.42;12.80;;;;;;;21.35;59.46;95058.88;5101800;27;20030;-80
2023/06/28 08:13:00;;;;;;;21.33;12.63;;;;;;;21.33;59.12;95026.84;5113496;27;20093;-81
2023/06/28 08:15:25;;;;;;;19.38;12.00;;;;;;;21.51;59.43;95048.91;5090976;27;20660;-81
2023/06/28 08:17:50;;;;;;;21.98;12.07;;;;;;;21.33;59.35;94999.88;5092752;27;20143;-80
2023/06/28 08:20:16;;;;;;;24.40;12.30;;;;;;;21.58;57.83;95049.09;5119124;27;20055;-80
2023/06/28 08:22:42;;;;;;;16.55;11.73;;;;;;;21.68;57.95;95064.75;5124253;27;20066;-80
2023/06/28 08:25:08;;;;;;;16.60;11.07;;;;;;;21.55;57.37;95026.25;5094264;27;20031;-80
2023/06/28 08:27:33;;;;;;;16.02;12.20;;;;;;;21.75;56.95;95024.44;5108987;27;20035;-80
2023/06/28 08:29:59;;;;;;;22.08;12.82;;;;;;;21.92;55.91;95050.31;5105487;27;20464;-80
2023/06/28 08:32:24;;;;;;;27.50;12.85;;;;;;;21.89;55.93;95035.59;5101096;27;20497;-80
2023/06/28 08:34:50;;;;;;;23.30;13.45;;;;;;;21.83;56.12;95012.69;5101564;27;20031;-80
2023/06/28 08:37:16;;;;;;;24.63;12.50;;;;;;;22.28;55.12;95041.97;5098029;27;20569;-80
2023/06/28 08:39:41;;;;;;;14.93;11.25;;;;;;;22.02;55.20;95019.34;5120785;27;20034;-82
2023/06/28 08:42:07;;;;;;;21.30;12.63;;;;;;;22.14;55.08;95020.03;5107631;27;20027;-84
2023/06/28 08:44:33;;;;;;;22.52;12.60;;;;;;;22.26;55.04;95025.34;5098140;27;20114;-84
2023/06/28 08:47:00;;;;;;;17.98;11.60;;;;;;;22.44;55.44;95038.44;5117022;27;20041;-84
2023/06/28 08:49:27;;;;;;;23.38;13.10;;;;;;;21.78;55.94;94936.59;5103830;27;20026;-79
2023/06/28 08:51:55;;;;;;;16.75;12.07;;;;;;;22.32;54.44;95025.84;5113205;27;20098;-81
2023/06/28 08:54:22;;;;;;;18.42;11.82;;;;;;;22.39;54.53;95052.22;5121731;27;20041;-80
2023/06/28 08:56:50;;;;;;;20.08;12.77;;;;;;;22.10;54.65;95034.59;5092008;27;20023;-80
2023/06/28 08:59:16;;;;;;;21.70;12.85;;;;;;;21.93;54.33;94979.78;5102490;27;20035;-80
2023/06/28 09:01:41;;;;;;;20.83;12.85;;;;;;;22.20;53.16;95012.47;5115574;27;20758;-80
2023/06/28 09:04:08;;;;;;;23.63;14.13;;;;;;;22.20;53.44;95034.81;5089944;27;20066;-80
2023/06/28 09:06:34;;;;;;;23.60;13.52;;;;;;;21.98;54.45;95015.75;5096066;27;20031;-80
2023/06/28 09:09:01;;;;;;;14.68;11.63;;;;;;;21.93;54.66;95001.38;5111347;27;20256;-80
2023/06/28 09:11:26;;;;;;;21.13;13.10;;;;;;;22.33;54.88;95030.91;5089959;27;20114;-80
2023/06/28 09:13:52;;;;;;;15.55;11.95;;;;;;;22.11;53.23;94996.44;5111502;27;20065;-80
2023/06/28 09:16:22;;;;;;;15.48;11.13;;;;;;;22.28;53.39;95006.84;5095067;27;21298;-80
2023/06/28 09:18:47;;;;;;;14.63;10.65;;;;;;;22.49;53.38;95005.78;5096253;27;20034;-80
2023/06/28 09:21:23;;;;;;;16.27;11.40;;;;;;;21.93;51.88;94939.28;5124470;27;20524;-80
2023/06/28 09:23:49;;;;;;;19.45;12.20;;;;;;;21.95;52.18;94928.91;5102015;27;20035;-80
2023/06/28 09:26:14;;;;;;;19.75;11.55;;;;;;;22.73;52.13;95027.16;5102222;27;20042;-80
2023/06/28 09:28:40;;;;;;;13.95;11.15;;;;;;;22.77;51.66;95005.63;5098683;27;20050;-80
2023/06/28 09:31:05;;;;;;;20.88;11.13;;;;;;;22.76;50.91;94999.41;5119703;27;20030;-80
2023/06/28 09:33:31;;;;;;;19.80;12.25;;;;;;;22.82;51.66;95006.09;5110726;27;20019;-80
2023/06/28 09:35:59;;;;;;;20.38;11.35;;;;;;;22.93;51.07;95026.06;5108091;27;20555;-82
2023/06/28 09:38:26;;;;;;;16.65;11.07;;;;;;;23.20;51.77;95031.59;5103946;27;20057;-81
2023/06/28 09:40:59;;;;;;;16.40;10.88;;;;;;;23.20;51.13;95026.97;5100732;27;20104;-81
2023/06/28 09:43:30;;;;;;;16.35;11.68;;;;;;;23.12;50.21;94967.66;5107414;27;20114;-80
2023/06/28 09:46:08;;;;;;;15.05;10.98;;;;;;;23.53;50.55;95025.69;5118425;27;20031;-80
2023/06/28 09:48:36;;;;;;;20.20;10.27;;;;;;;24.28;49.31;95016.91;5106580;27;20039;-81
2023/06/28 09:51:04;;;;;;;15.80;10.52;;;;;;;24.66;46.85;94994.97;5107114;27;20057;-81
2023/06/28 09:53:31;;;;;;;21.63;11.10;;;;;;;25.64;45.83;95024.47;5096159;27;20491;-80
2023/06/28 09:55:57;;;;;;;20.20;10.75;;;;;;;25.36;45.19;94980.72;5127788;27;20055;-80
2023/06/28 09:58:27;;;;;;;17.33;10.43;;;;;;;25.51;45.08;94984.38;5107527;27;20134;-80
2023/06/28 10:00:53;;;;;;;17.02;9.95;;;;;;;25.89;44.39;94989.41;5107487;27;20115;-80
2023/06/28 10:03:24;;;;;;;16.20;10.65;;;;;;;25.84;44.63;94976.19;5125524;27;20030;-80
2023/06/28 10:05:52;;;;;;;16.45;10.60;;;;;;;26.61;43.06;94999.69;5120389;27;21028;-80
2023/06/28 10:08:18;;;;;;;11.75;9.50;;;;;;;26.67;41.40;94934.81;5121524;27;20023;-80
2023/06/28 10:10:46;;;;;;;12.40;9.73;;;;;;;27.72;41.52;95015.31;5103197;27;20027;-80
2023/06/28 10:13:16;;;;;;;14.50;10.60;;;;;;;27.43;40.84;94992.66;5102714;27;20044;-81
2023/06/28 10:15:54;;;;;;;16.60;9.63;;;;;;;27.64;40.86;94998.16;5089854;28;20491;-80
2023/06/28 10:18:22;;;;;;;16.20;9.90;;;;;;;27.44;40.53;95005.09;5094748;27;20036;-80
2023/06/28 10:20:49;;;;;;;17.25;10.10;;;;;;;27.17;41.66;94996.44;5076022;28;20391;-80
2023/06/28 10:23:17;;;;;;;18.35;10.88;;;;;;;27.77;40.99;95006.75;5071452;28;20042;-81
2023/06/28 10:25:45;;;;;;;13.50;9.57;;;;;;;27.62;40.92;95011.38;5089773;28;20038;-80
2023/06/28 10:28:14;;;;;;;13.18;9.73;;;;;;;27.40;41.11;95015.19;5078759;28;20066;-81
2023/06/28 10:30:40;;;;;;;19.48;9.93;;;;;;;26.91;42.25;94999.47;5115576;27;20089;-80
2023/06/28 10:33:06;;;;;;;13.73;9.20;;;;;;;26.82;42.35;94988.91;5088949;28;20031;-80
2023/06/28 10:35:32;;;;;;;13.57;9.23;;;;;;;26.62;41.15;94960.44;5093633;28;20039;-80
2023/06/28 10:37:59;;;;;;;12.32;9.45;;;;;;;26.29;41.65;94917.91;5092529;28;20023;-80
2023/06/28 10:40:25;;;;;;;12.95;10.10;;;;;;;27.06;41.76;94994.88;5099841;28;20050;-79
2023/06/28 10:42:51;;;;;;;15.90;10.77;;;;;;;26.21;42.73;94967.13;5114354;27;20403;-79
2023/06/28 10:45:16;;;;;;;18.33;10.23;;;;;;;26.42;42.54;95011.59;5096348;28;20040;-80
2023/06/28 10:47:54;;;;;;;16.40;10.40;;;;;;;26.01;43.12;94948.38;5090842;28;20035;-80
2023/06/28 10:50:21;;;;;;;13.40;10.10;;;;;;;26.56;42.50;94997.28;5083457;28;20102;-80
2023/06/28 10:52:49;;;;;;;14.32;10.85;;;;;;;26.56;42.97;94997.28;5090752;28;20035;-79
2023/06/28 10:55:28;;;;;;;16.23;10.95;;;;;;;27.11;41.34;94994.47;5105439;27;20599;-80
2023/06/28 10:58:26;;;;;;;12.75;9.68;;;;;;;27.13;41.67;94989.44;5111355;27;20038;-79
2023/06/28 11:00:52;;;;;;;14.65;9.88;;;;;;;26.84;42.05;94967.53;5040899;28;20571;-79
2023/06/28 11:03:19;;;;;;;14.40;8.82;;;;;;;27.22;42.23;94954.47;5107336;27;20809;-79
2023/06/28 11:05:44;;;;;;;16.17;8.95;;;;;;;27.24;41.13;95004.63;5072402;28;20037;-79
2023/06/28 11:08:11;;;;;;;13.25;8.75;;;;;;;27.00;41.82;94985.50;5082382;28;20491;-79
2023/06/28 11:10:44;;;;;;;12.55;8.80;;;;;;;26.60;42.05;94976.34;5102381;28;20031;-78
2023/06/28 11:13:11;;;;;;;13.23;8.82;;;;;;;26.01;42.33;94877.72;5127071;27;20064;-79
2023/06/28 11:15:43;;;;;;;13.30;9.73;;;;;;;26.61;42.71;95002.38;5098248;28;20064;-80